createdAt,value
2018-04-07T00:00:37.667Z,58.90
2018-04-07T00:05:41.344Z,59.90
2018-04-07T00:10:44.903Z,59.40
2018-04-07T00:15:47.654Z,59.40
2018-04-07T00:20:51.286Z,59.70
2018-04-07T00:25:54.403Z,59.60
2018-04-07T00:30:57.519Z,59.90
2018-04-07T00:36:00.918Z,60.00
2018-04-07T00:41:04.708Z,60.40
2018-04-07T00:46:08.095Z,60.30
2018-04-07T00:51:11.049Z,60.50
2018-04-07T00:56:14.723Z,60.60
2018-04-07T01:06:15.064Z,60.60
2018-04-07T01:11:18.735Z,60.90
2018-04-07T01:16:21.793Z,60.80
2018-04-07T01:21:26.067Z,61.20
2018-04-07T01:26:30.031Z,61.40
2018-04-07T01:31:33.516Z,61.30
2018-04-07T01:36:36.401Z,61.80
2018-04-07T01:41:39.871Z,61.70
2018-04-07T01:46:44.414Z,61.90
2018-04-07T01:51:47.265Z,62.00
2018-04-07T01:56:50.955Z,62.00
2018-04-07T02:01:55.858Z,62.10
2018-04-07T02:06:59.398Z,62.10
2018-04-07T02:12:02.404Z,61.90
2018-04-07T02:17:05.770Z,61.80
2018-04-07T02:22:08.556Z,62.10
2018-04-07T02:27:11.438Z,62.50
2018-04-07T02:32:14.907Z,62.90
2018-04-07T02:37:18.056Z,62.60
2018-04-07T02:42:20.875Z,63.10
2018-04-07T02:47:24.001Z,63.30
2018-04-07T02:52:27.091Z,63.00
2018-04-07T02:57:29.936Z,63.40
2018-04-07T03:02:33.136Z,63.10
2018-04-07T03:07:35.791Z,63.20
2018-04-07T03:12:38.897Z,64.00
2018-04-07T03:17:41.762Z,64.00
2018-04-07T03:22:45.006Z,64.00
2018-04-07T03:27:47.950Z,63.50
2018-04-07T03:32:50.913Z,63.60
2018-04-07T03:37:54.325Z,64.30
2018-04-07T03:42:57.973Z,64.30
2018-04-07T03:48:01.681Z,64.70
2018-04-07T03:53:04.639Z,64.60
2018-04-07T03:58:08.281Z,64.20
2018-04-07T04:03:11.103Z,64.40
2018-04-07T04:08:15.835Z,64.50
2018-04-07T04:13:18.935Z,64.30
2018-04-07T04:18:23.200Z,64.70
2018-04-07T04:23:26.156Z,64.90
2018-04-07T04:28:29.107Z,65.20
2018-04-07T04:33:32.663Z,65.10
2018-04-07T04:38:35.463Z,65.00
2018-04-07T04:43:39.835Z,65.50
2018-04-07T04:48:43.313Z,65.50
2018-04-07T04:53:46.091Z,65.50
2018-04-07T04:58:49.825Z,66.00
2018-04-07T05:03:52.927Z,65.90
2018-04-07T05:08:56.570Z,65.90
2018-04-07T05:14:00.100Z,65.70
2018-04-07T05:19:03.322Z,66.00
2018-04-07T05:24:06.456Z,66.00
2018-04-07T05:29:09.162Z,66.50
2018-04-07T05:34:13.690Z,66.50
2018-04-07T05:39:16.745Z,67.20
2018-04-07T05:44:19.553Z,67.70
2018-04-07T05:49:22.604Z,67.00
2018-04-07T05:54:26.012Z,67.40
2018-04-07T05:59:28.680Z,67.00
2018-04-07T06:04:31.760Z,67.10
2018-04-07T06:09:36.143Z,66.80
2018-04-07T06:14:39.542Z,65.70
2018-04-07T06:19:43.236Z,63.50
2018-04-07T06:24:46.259Z,63.40
2018-04-07T06:29:49.134Z,63.00
2018-04-07T06:34:51.970Z,61.60
2018-04-07T06:39:55.296Z,60.70
2018-04-07T06:44:59.060Z,59.80
2018-04-07T06:50:01.918Z,59.10
2018-04-07T06:55:05.669Z,57.60
2018-04-07T07:00:08.391Z,57.40
2018-04-07T07:05:11.947Z,54.80
2018-04-07T07:10:14.791Z,54.80
2018-04-07T07:15:17.690Z,54.50
2018-04-07T07:20:20.562Z,54.40
2018-04-07T07:25:23.373Z,53.40
2018-04-07T07:30:26.925Z,52.80
2018-04-07T07:35:29.496Z,52.80
2018-04-07T07:40:33.133Z,50.90
2018-04-07T07:45:36.158Z,50.20
2018-04-07T07:50:40.558Z,48.50
2018-04-07T07:55:43.326Z,48.50
2018-04-07T08:00:46.075Z,48.00
2018-04-07T08:05:48.855Z,45.70
2018-04-07T08:10:51.548Z,46.60
2018-04-07T08:15:54.656Z,47.10
2018-04-07T08:20:57.783Z,46.40
2018-04-07T08:26:02.800Z,45.70
2018-04-07T08:31:06.368Z,44.60
2018-04-07T08:36:09.233Z,44.50
2018-04-07T08:41:12.662Z,42.50
2018-04-07T08:46:15.487Z,43.20
2018-04-07T08:51:21.388Z,42.70
2018-04-07T08:56:24.927Z,42.80
2018-04-07T09:01:29.094Z,42.80
2018-04-07T09:06:32.199Z,42.50
2018-04-07T09:11:35.222Z,42.10
2018-04-07T09:16:38.273Z,42.40
2018-04-07T09:21:42.167Z,41.70
2018-04-07T09:26:44.978Z,40.60
2018-04-07T09:31:47.939Z,39.70
2018-04-07T09:36:50.523Z,39.00
2018-04-07T09:41:54.013Z,38.10
2018-04-07T09:46:56.972Z,36.90
2018-04-07T09:52:00.296Z,38.30
2018-04-07T09:57:03.223Z,38.10
2018-04-07T10:02:06.431Z,37.50
2018-04-07T10:07:10.277Z,37.30
2018-04-07T10:12:13.522Z,37.50
2018-04-07T10:17:16.580Z,37.60
2018-04-07T10:22:19.741Z,37.80
2018-04-07T10:27:22.447Z,37.90
2018-04-07T10:32:25.443Z,37.00
2018-04-07T10:37:28.452Z,38.10
2018-04-07T10:42:31.994Z,35.70
2018-04-07T10:47:34.665Z,36.90
2018-04-07T10:52:37.736Z,34.70
2018-04-07T10:57:40.440Z,35.80
2018-04-07T11:02:43.300Z,34.40
2018-04-07T11:07:46.646Z,34.80
2018-04-07T11:12:49.631Z,35.10
2018-04-07T11:17:53.334Z,35.40
2018-04-07T11:22:56.748Z,34.80
2018-04-07T11:28:01.021Z,34.30
2018-04-07T11:33:04.051Z,34.10
2018-04-07T11:38:07.540Z,33.50
2018-04-07T11:43:13.736Z,33.40
2018-04-07T11:48:17.593Z,32.40
2018-04-07T11:53:20.589Z,31.20
2018-04-07T11:58:23.579Z,32.90
2018-04-07T12:03:26.852Z,32.90
2018-04-07T12:08:29.804Z,32.10
2018-04-07T12:13:33.077Z,31.90
2018-04-07T12:18:37.022Z,31.60
2018-04-07T12:23:39.954Z,34.00
2018-04-07T12:28:43.051Z,31.80
2018-04-07T12:33:46.286Z,31.20
2018-04-07T12:38:49.464Z,31.90
2018-04-07T12:43:52.393Z,31.20
2018-04-07T12:48:55.329Z,31.30
2018-04-07T12:53:58.299Z,29.50
2018-04-07T12:59:01.948Z,31.00
2018-04-07T13:04:05.112Z,30.20
2018-04-07T13:09:08.121Z,30.20
2018-04-07T13:14:10.898Z,30.80
2018-04-07T13:19:14.914Z,28.70
2018-04-07T13:24:17.776Z,28.60
2018-04-07T13:29:20.484Z,27.80
2018-04-07T13:34:23.951Z,30.30
2018-04-07T13:39:26.855Z,30.20
2018-04-07T13:44:30.005Z,29.30
2018-04-07T13:49:32.913Z,29.30
2018-04-07T13:54:36.231Z,30.10
2018-04-07T13:59:39.360Z,29.10
2018-04-07T14:04:42.772Z,29.30
2018-04-07T14:09:46.377Z,29.40
2018-04-07T14:14:49.245Z,30.60
2018-04-07T14:19:52.299Z,28.00
2018-04-07T14:24:55.544Z,28.60
2018-04-07T14:29:59.757Z,28.90
2018-04-07T14:35:02.607Z,29.40
2018-04-07T14:40:06.428Z,29.90
2018-04-07T14:45:10.099Z,30.00
2018-04-07T14:50:12.989Z,29.20
2018-04-07T14:55:16.561Z,29.30
2018-04-07T15:00:19.567Z,30.10
2018-04-07T15:05:23.077Z,30.00
2018-04-07T15:10:27.251Z,30.00
2018-04-07T15:15:31.315Z,30.30
2018-04-07T15:20:34.287Z,30.50
2018-04-07T15:25:37.011Z,32.20
2018-04-07T15:30:40.058Z,30.70
2018-04-07T15:35:43.133Z,31.60
2018-04-07T15:40:47.500Z,31.60
2018-04-07T15:45:50.736Z,31.70
2018-04-07T15:50:54.397Z,32.00
2018-04-07T15:55:57.399Z,32.50
2018-04-07T16:01:00.942Z,33.20
2018-04-07T16:06:03.807Z,33.10
2018-04-07T16:11:07.594Z,33.40
2018-04-07T16:16:11.179Z,34.00
2018-04-07T16:21:14.247Z,35.00
2018-04-07T16:26:17.598Z,35.50
2018-04-07T16:31:20.294Z,35.70
2018-04-07T16:36:23.021Z,35.80
2018-04-07T16:41:26.103Z,36.50
2018-04-07T16:46:29.401Z,36.80
2018-04-07T16:51:32.283Z,37.10
2018-04-07T16:56:35.240Z,37.20
2018-04-07T17:01:38.569Z,37.80
2018-04-07T17:06:41.274Z,38.00
2018-04-07T17:11:44.050Z,38.00
2018-04-07T17:16:46.970Z,38.70
2018-04-07T17:21:50.101Z,39.00
2018-04-07T17:26:52.768Z,39.50
2018-04-07T17:31:55.468Z,39.80
2018-04-07T17:36:58.473Z,40.10
2018-04-07T17:42:02.940Z,40.50
2018-04-07T17:47:07.839Z,41.00
2018-04-07T17:52:10.999Z,41.30
2018-04-07T17:57:13.948Z,41.70
2018-04-07T18:02:17.508Z,42.30
2018-04-07T18:07:20.537Z,42.60
2018-04-07T18:12:25.082Z,43.00
2018-04-07T18:17:27.880Z,43.30
2018-04-07T18:22:30.766Z,44.10
2018-04-07T18:27:33.959Z,44.40
2018-04-07T18:32:37.536Z,45.00
2018-04-07T18:37:40.608Z,45.30
2018-04-07T18:42:43.404Z,46.00
2018-04-07T18:47:46.995Z,46.70
2018-04-07T18:52:50.162Z,47.30
2018-04-07T18:57:54.072Z,47.90
2018-04-07T19:02:57.082Z,48.40
2018-04-07T19:08:00.369Z,48.80
2018-04-07T19:13:04.066Z,49.00
2018-04-07T19:18:07.103Z,49.30
2018-04-07T19:23:10.497Z,49.40
2018-04-07T19:28:16.106Z,49.50
2018-04-07T19:33:22.048Z,48.80
2018-04-07T19:38:25.370Z,48.50
2018-04-07T19:43:29.536Z,48.00
2018-04-07T19:48:32.858Z,47.80
2018-04-07T19:53:35.608Z,47.90
2018-04-07T19:58:38.343Z,47.90
2018-04-07T20:03:41.186Z,48.00
2018-04-07T20:08:43.912Z,48.30
2018-04-07T20:13:47.788Z,48.30
2018-04-07T20:18:50.755Z,48.40
2018-04-07T20:23:53.811Z,48.80
2018-04-07T20:28:56.824Z,49.00
2018-04-07T20:33:59.631Z,49.30
2018-04-07T20:39:03.474Z,50.10
2018-04-07T20:44:06.196Z,50.10
2018-04-07T20:49:09.614Z,50.20
2018-04-07T20:54:12.173Z,50.20
2018-04-07T20:59:14.702Z,50.40
2018-04-07T21:04:17.403Z,50.90
2018-04-07T21:09:20.643Z,51.10
2018-04-07T21:14:23.688Z,51.40
2018-04-07T21:19:26.897Z,51.70
2018-04-07T21:24:29.764Z,52.00
2018-04-07T21:29:32.708Z,52.40
2018-04-07T21:34:35.459Z,52.90
2018-04-07T21:39:39.008Z,53.20
2018-04-07T21:44:42.346Z,53.40
2018-04-07T21:49:45.332Z,53.80
2018-04-07T21:54:48.346Z,53.90
2018-04-07T21:59:51.291Z,54.40
2018-04-07T22:04:53.817Z,55.00
2018-04-07T22:09:57.179Z,55.30
2018-04-07T22:15:00.089Z,55.40
2018-04-07T22:20:03.062Z,55.60
2018-04-07T22:25:05.846Z,55.90
2018-04-07T22:30:08.962Z,56.20
2018-04-07T22:35:11.802Z,56.40
2018-04-07T22:40:14.827Z,56.70
2018-04-07T22:45:18.934Z,56.20
2018-04-07T22:50:21.843Z,56.20
2018-04-07T22:55:24.640Z,56.20
2018-04-07T23:00:27.874Z,56.00
2018-04-07T23:05:31.888Z,56.30
2018-04-07T23:10:34.579Z,56.60
2018-04-07T23:15:38.294Z,56.70
2018-04-07T23:20:42.026Z,56.60
2018-04-07T23:25:45.662Z,56.60
2018-04-07T23:30:48.216Z,56.60
2018-04-07T23:35:51.676Z,56.90
2018-04-07T23:40:54.358Z,56.80
2018-04-07T23:45:57.902Z,57.20
2018-04-07T23:51:00.718Z,57.50
2018-04-07T23:56:03.632Z,57.80
